Terminal Aerodrome Forecast
Issued by NWS Charleston, WV

Current Version | Previous Version | Graphics & Text | Print | Product List | Glossary On
Versions: 1 2 3 4 5 6 7 8 9 10 11 12 13 14 15 16 17 18 19 20 21 22 23 24 25 26 27 28 29
769
FTUS41 KRLX 242109 AAD
TAFCRW
TAF AMD
KCRW 242109Z 2421/2518 19009KT P6SM SCT300
     FM251000 19009G15KT 5SM -SHRA BR OVC040
     FM251100 20009KT 2SM -SHRA BR OVC025
     FM251200 22009G15KT 3SM SHRA OVC025
     FM251400 24009G18KT 6SM SHRA OVC060
     FM251500 25010G21KT P6SM OVC060=

USA.gov is the U.S. government's official web portal to all federal, state and local government web resources and services.